createdAt,value
2022-10-09T00:01:11.570Z,0.60
2022-10-09T00:03:40.028Z,0.60
2022-10-09T00:06:33.226Z,0.60
2022-10-09T00:09:02.216Z,0.70
2022-10-09T00:11:30.765Z,0.60
2022-10-09T00:13:58.546Z,0.60
2022-10-09T00:16:25.961Z,0.68
2022-10-09T00:18:53.379Z,0.70
2022-10-09T00:21:22.997Z,0.60
2022-10-09T00:23:51.034Z,0.60
2022-10-09T00:26:18.194Z,0.60
2022-10-09T00:28:45.961Z,0.60
2022-10-09T00:31:14.054Z,0.70
2022-10-09T00:33:41.026Z,0.60
2022-10-09T00:36:11.823Z,0.60
2022-10-09T00:38:39.576Z,0.60
2022-10-09T00:41:07.916Z,0.70
2022-10-09T00:43:47.276Z,0.63
2022-10-09T00:46:26.612Z,0.60
2022-10-09T00:49:07.709Z,0.60
2022-10-09T00:51:34.978Z,0.60
2022-10-09T00:54:04.057Z,0.60
2022-10-09T00:56:31.470Z,0.60
2022-10-09T00:58:58.720Z,0.60
2022-10-09T01:01:25.987Z,0.60
2022-10-09T01:03:53.007Z,0.70
2022-10-09T01:06:32.739Z,0.60
2022-10-09T01:09:08.639Z,0.60
2022-10-09T01:11:44.313Z,0.60
2022-10-09T01:14:17.404Z,0.60
2022-10-09T01:17:00.461Z,0.60
2022-10-09T01:20:04.484Z,0.60
2022-10-09T01:23:15.434Z,0.60
2022-10-09T01:25:50.721Z,0.60
2022-10-09T01:28:19.455Z,0.60
2022-10-09T01:30:50.181Z,0.70
2022-10-09T01:33:17.713Z,0.60
2022-10-09T01:35:45.158Z,0.70
2022-10-09T01:38:12.399Z,0.60
2022-10-09T01:40:39.503Z,0.70
2022-10-09T01:43:06.480Z,0.70
2022-10-09T01:45:39.222Z,0.60
2022-10-09T01:48:07.378Z,0.60
2022-10-09T01:50:41.085Z,0.60
2022-10-09T01:53:10.821Z,0.60
2022-10-09T01:55:45.202Z,0.68
2022-10-09T01:58:19.465Z,0.70
2022-10-09T02:00:53.827Z,0.70
2022-10-09T02:03:21.173Z,0.60
2022-10-09T02:05:49.896Z,0.60
2022-10-09T02:08:19.101Z,0.60
2022-10-09T02:10:47.478Z,0.70
2022-10-09T02:13:14.609Z,0.70
2022-10-09T02:15:48.664Z,0.60
2022-10-09T02:18:19.611Z,0.60
2022-10-09T02:20:53.819Z,0.65
2022-10-09T02:23:23.199Z,0.70
2022-10-09T02:25:50.623Z,0.60
2022-10-09T02:28:17.739Z,0.70
2022-10-09T02:30:55.668Z,0.60
2022-10-09T02:33:28.250Z,0.60
2022-10-09T02:35:55.447Z,0.65
2022-10-09T02:38:22.407Z,0.60
2022-10-09T02:40:49.545Z,0.60
2022-10-09T02:43:16.588Z,0.60
2022-10-09T02:45:43.785Z,0.60
2022-10-09T02:48:13.234Z,0.60
2022-10-09T02:50:40.286Z,0.60
2022-10-09T02:53:07.203Z,0.70
2022-10-09T02:55:34.174Z,0.70
2022-10-09T02:58:01.147Z,0.70
2022-10-09T03:00:28.313Z,0.60
2022-10-09T03:02:55.512Z,0.70
2022-10-09T03:05:22.665Z,0.60
2022-10-09T03:07:51.740Z,0.60
2022-10-09T03:10:20.442Z,0.63
2022-10-09T03:12:49.368Z,0.70
2022-10-09T03:15:16.943Z,0.70
2022-10-09T03:17:43.882Z,0.60
2022-10-09T03:20:13.748Z,0.70
2022-10-09T03:22:40.700Z,0.60
2022-10-09T03:25:08.036Z,0.60
2022-10-09T03:27:36.108Z,0.70
2022-10-09T03:30:03.937Z,0.70
2022-10-09T03:32:32.448Z,0.70
2022-10-09T03:34:59.660Z,0.60
2022-10-09T03:37:26.526Z,0.70
2022-10-09T03:39:56.312Z,0.70
2022-10-09T03:42:23.256Z,0.60
2022-10-09T03:44:50.330Z,0.60
2022-10-09T03:47:17.641Z,0.60
2022-10-09T03:49:44.662Z,0.70
2022-10-09T03:52:11.680Z,0.70
2022-10-09T03:54:38.610Z,0.70
2022-10-09T03:57:06.400Z,0.68
2022-10-09T03:59:33.287Z,0.60
2022-10-09T04:02:04.463Z,0.77
2022-10-09T04:04:31.504Z,0.70
2022-10-09T04:06:58.365Z,0.70
2022-10-09T04:09:25.412Z,0.60
2022-10-09T04:11:52.600Z,0.70
2022-10-09T04:14:19.472Z,0.70
2022-10-09T04:16:46.531Z,0.70
2022-10-09T04:19:17.751Z,0.70
2022-10-09T04:21:44.813Z,0.65
2022-10-09T04:24:11.769Z,0.70
2022-10-09T04:26:43.055Z,0.70
2022-10-09T04:29:11.429Z,0.70
2022-10-09T04:31:38.558Z,0.60
2022-10-09T04:34:07.960Z,0.70
2022-10-09T04:36:34.947Z,0.70
2022-10-09T04:39:01.991Z,0.70
2022-10-09T04:41:38.119Z,0.70
2022-10-09T04:44:08.585Z,0.80
2022-10-09T04:46:38.856Z,0.70
2022-10-09T04:49:05.811Z,0.70
2022-10-09T04:51:32.998Z,0.70
2022-10-09T04:54:00.902Z,0.70
2022-10-09T04:56:28.135Z,0.70
2022-10-09T04:58:55.083Z,0.60
2022-10-09T05:01:24.359Z,0.70
2022-10-09T05:03:53.114Z,0.70
2022-10-09T05:06:23.760Z,0.70
2022-10-09T05:08:51.362Z,0.80
2022-10-09T05:11:23.655Z,0.70
2022-10-09T05:13:53.413Z,0.80
2022-10-09T05:16:26.677Z,0.80
2022-10-09T05:18:57.903Z,0.60
2022-10-09T05:21:25.992Z,0.70
2022-10-09T05:23:56.352Z,0.70
2022-10-09T05:26:25.121Z,0.70
2022-10-09T05:28:52.453Z,0.70
2022-10-09T05:31:27.356Z,0.70
2022-10-09T05:33:56.302Z,0.80
2022-10-09T05:36:23.234Z,0.70
2022-10-09T05:38:50.251Z,0.70
2022-10-09T05:41:19.239Z,0.70
2022-10-09T05:43:47.779Z,0.68
2022-10-09T05:46:20.198Z,0.70
2022-10-09T05:48:52.640Z,0.70
2022-10-09T05:51:30.606Z,0.70
2022-10-09T05:53:58.088Z,0.80
2022-10-09T05:56:27.436Z,0.80
2022-10-09T05:59:05.176Z,0.70
2022-10-09T06:01:34.766Z,0.70
2022-10-09T06:04:02.734Z,0.70
2022-10-09T06:06:32.594Z,0.70
2022-10-09T06:09:07.193Z,0.70
2022-10-09T06:11:36.584Z,0.70
2022-10-09T06:14:06.151Z,0.63
2022-10-09T06:16:38.945Z,0.60
2022-10-09T06:19:07.832Z,0.60
2022-10-09T06:21:34.957Z,0.60
2022-10-09T06:24:03.046Z,0.60
2022-10-09T06:26:31.313Z,0.50
2022-10-09T06:29:00.745Z,0.70
2022-10-09T06:31:30.236Z,0.60
2022-10-09T06:34:00.031Z,0.68
2022-10-09T06:36:29.607Z,0.60
2022-10-09T06:38:58.050Z,0.60
2022-10-09T06:41:26.621Z,0.60
2022-10-09T06:43:58.470Z,0.70
2022-10-09T06:49:32.804Z,0.60
2022-10-09T06:51:59.806Z,0.63
2022-10-09T06:54:26.715Z,0.70
2022-10-09T06:56:55.376Z,0.60
2022-10-09T06:59:22.449Z,0.60
2022-10-09T07:01:49.425Z,0.70
2022-10-09T07:04:23.767Z,0.60
2022-10-09T07:06:51.007Z,0.68
2022-10-09T07:09:18.036Z,0.70
2022-10-09T07:11:46.974Z,0.60
2022-10-09T07:14:16.104Z,0.68
2022-10-09T07:16:47.581Z,0.60
2022-10-09T07:19:17.685Z,0.70
2022-10-09T07:21:47.218Z,0.70
2022-10-09T07:24:15.275Z,0.70
2022-10-09T07:26:44.774Z,0.70
2022-10-09T07:29:15.113Z,0.60
2022-10-09T07:31:42.031Z,0.70
2022-10-09T07:34:09.015Z,0.60
2022-10-09T07:36:40.601Z,0.70
2022-10-09T07:39:07.653Z,0.70
2022-10-09T07:41:34.864Z,0.80
2022-10-09T07:44:01.776Z,0.70
2022-10-09T07:46:33.243Z,0.70
2022-10-09T07:49:02.063Z,0.70
2022-10-09T07:51:30.152Z,0.70
2022-10-09T07:53:58.005Z,0.70
2022-10-09T07:56:29.166Z,0.70
2022-10-09T07:59:13.316Z,0.70
2022-10-09T08:01:42.130Z,0.70
2022-10-09T08:04:10.200Z,0.70
2022-10-09T08:06:37.247Z,0.60
2022-10-09T08:09:05.892Z,0.70
2022-10-09T08:14:19.308Z,0.70
2022-10-09T08:16:47.123Z,0.70
2022-10-09T08:19:14.001Z,0.70
2022-10-09T08:21:43.713Z,0.70
2022-10-09T08:24:13.245Z,0.60
2022-10-09T08:26:40.656Z,0.70
2022-10-09T08:29:09.776Z,0.70
2022-10-09T08:31:37.703Z,0.60
2022-10-09T08:34:04.745Z,0.70
2022-10-09T08:36:34.198Z,0.60
2022-10-09T08:39:01.359Z,0.70
2022-10-09T08:41:58.503Z,0.70
2022-10-09T08:44:32.123Z,0.70
2022-10-09T08:47:08.255Z,0.70
2022-10-09T08:49:57.024Z,0.70
2022-10-09T08:52:41.777Z,0.60
2022-10-09T08:55:31.235Z,0.70
2022-10-09T08:58:04.544Z,0.70
2022-10-09T09:00:46.350Z,0.60
2022-10-09T09:03:48.752Z,0.70
2022-10-09T09:07:19.129Z,0.70
2022-10-09T09:15:53.285Z,0.70
2022-10-09T09:18:51.065Z,0.70
2022-10-09T09:21:38.862Z,0.70
2022-10-09T09:24:14.130Z,0.70
2022-10-09T09:26:51.903Z,0.50
2022-10-09T09:29:23.344Z,0.70
2022-10-09T09:31:54.105Z,0.70
2022-10-09T09:34:41.404Z,0.70
2022-10-09T09:37:11.656Z,0.70
2022-10-09T09:42:27.934Z,0.80
2022-10-09T09:45:04.531Z,0.80
2022-10-09T09:47:41.364Z,0.70
2022-10-09T09:50:23.312Z,0.52
2022-10-09T09:52:56.258Z,0.50
2022-10-09T09:55:25.667Z,0.60
2022-10-09T09:57:52.840Z,0.50
2022-10-09T10:00:30.237Z,0.50
2022-10-09T10:03:11.463Z,0.70
2022-10-09T10:05:39.480Z,0.63
2022-10-09T10:08:25.826Z,0.70
2022-10-09T10:10:55.360Z,0.70
2022-10-09T10:13:31.082Z,0.70
2022-10-09T10:15:58.524Z,0.60
2022-10-09T10:18:28.852Z,0.70
2022-10-09T10:20:57.854Z,0.60
2022-10-09T10:23:40.990Z,0.70
2022-10-09T10:26:25.594Z,0.60
2022-10-09T10:29:17.310Z,0.70
2022-10-09T10:31:51.531Z,0.50
2022-10-09T10:34:33.173Z,0.60
2022-10-09T10:37:05.545Z,0.50
2022-10-09T10:40:16.619Z,0.40
2022-10-09T10:42:57.518Z,0.50
2022-10-09T10:45:51.474Z,0.50
2022-10-09T10:48:39.328Z,0.50
2022-10-09T10:51:31.343Z,0.50
2022-10-09T10:54:16.512Z,0.50
2022-10-09T10:56:47.966Z,0.47
2022-10-09T10:59:41.575Z,0.60
2022-10-09T11:02:33.118Z,0.70
2022-10-09T11:05:47.368Z,0.68
2022-10-09T11:08:31.329Z,0.45
2022-10-09T11:11:25.743Z,0.50
2022-10-09T11:14:08.923Z,0.50
2022-10-09T11:16:53.146Z,0.50
2022-10-09T11:19:26.289Z,0.50
2022-10-09T11:22:03.447Z,0.50
2022-10-09T11:24:58.512Z,0.60
2022-10-09T11:28:11.617Z,0.50
2022-10-09T11:30:46.442Z,0.50
2022-10-09T11:33:28.902Z,0.47
2022-10-09T11:36:23.330Z,0.50
2022-10-09T11:39:12.785Z,0.40
2022-10-09T11:41:40.493Z,0.40
2022-10-09T11:44:26.198Z,0.50
2022-10-09T11:47:22.064Z,0.40
2022-10-09T11:49:57.928Z,0.40
2022-10-09T11:52:27.792Z,0.50
2022-10-09T11:55:00.570Z,0.40
2022-10-09T11:57:29.233Z,0.43
2022-10-09T12:00:10.065Z,0.30
2022-10-09T12:02:37.990Z,0.40
2022-10-09T12:05:30.056Z,0.43
2022-10-09T12:08:19.234Z,0.40
2022-10-09T12:11:12.712Z,0.30
2022-10-09T12:13:41.030Z,0.40
2022-10-09T12:19:37.189Z,0.40
2022-10-09T12:22:07.958Z,0.38
2022-10-09T12:24:44.828Z,0.40
2022-10-09T12:27:31.505Z,0.40
2022-10-09T12:30:14.286Z,0.40
2022-10-09T12:33:08.740Z,0.40
2022-10-09T12:35:38.274Z,0.50
2022-10-09T12:38:27.255Z,0.40
2022-10-09T12:40:57.240Z,0.40
2022-10-09T12:49:23.288Z,0.40
2022-10-09T12:51:56.379Z,0.40
2022-10-09T12:54:25.356Z,0.50
2022-10-09T12:56:54.750Z,0.32
2022-10-09T12:59:24.990Z,0.40
2022-10-09T13:01:56.285Z,0.40
2022-10-09T13:04:34.151Z,0.40
2022-10-09T13:07:09.073Z,0.40
2022-10-09T13:09:39.705Z,0.40
2022-10-09T13:12:10.549Z,0.40
2022-10-09T13:15:00.553Z,0.40
2022-10-09T13:17:40.367Z,0.40
2022-10-09T13:20:30.286Z,0.43
2022-10-09T13:23:00.394Z,0.40
2022-10-09T13:25:33.010Z,0.40
2022-10-09T13:28:00.171Z,0.50
2022-10-09T13:30:29.003Z,0.40
2022-10-09T13:32:56.495Z,0.40
2022-10-09T13:35:23.393Z,0.50
2022-10-09T13:37:50.634Z,0.40
2022-10-09T13:40:20.933Z,0.50
2022-10-09T13:42:56.992Z,0.50
2022-10-09T13:45:24.132Z,0.50
2022-10-09T13:47:51.872Z,0.50
2022-10-09T13:50:22.042Z,0.50
2022-10-09T13:52:49.242Z,0.50
2022-10-09T13:55:16.327Z,0.50
2022-10-09T13:57:44.742Z,0.50
2022-10-09T14:00:13.874Z,0.50
2022-10-09T14:02:45.201Z,0.50
2022-10-09T14:05:14.759Z,0.50
2022-10-09T14:07:41.979Z,0.40
2022-10-09T14:10:09.543Z,0.50
2022-10-09T14:12:36.835Z,0.50
2022-10-09T14:15:11.499Z,0.50
2022-10-09T14:17:38.587Z,0.45
2022-10-09T14:20:06.765Z,0.50
2022-10-09T14:22:33.691Z,0.40
2022-10-09T14:25:00.735Z,0.50
2022-10-09T14:27:27.668Z,0.50
2022-10-09T14:29:57.298Z,0.50
2022-10-09T14:32:24.509Z,0.50
2022-10-09T14:34:56.477Z,0.50
2022-10-09T14:37:40.441Z,0.57
2022-10-09T14:40:10.468Z,0.50
2022-10-09T14:42:38.929Z,0.50
2022-10-09T14:45:12.349Z,0.50
2022-10-09T14:47:40.775Z,0.60
2022-10-09T14:50:12.326Z,0.50
2022-10-09T14:52:39.689Z,0.50
2022-10-09T14:55:09.936Z,0.50
2022-10-09T14:57:38.419Z,0.40
2022-10-09T15:00:10.157Z,0.50
2022-10-09T15:02:37.501Z,0.50
2022-10-09T15:05:05.833Z,0.50
2022-10-09T15:07:33.862Z,0.50
2022-10-09T15:10:00.807Z,0.50
2022-10-09T15:12:27.711Z,0.50
2022-10-09T15:14:54.725Z,0.50
2022-10-09T15:17:22.599Z,0.50
2022-10-09T15:19:49.773Z,0.50
2022-10-09T15:22:20.380Z,0.50
2022-10-09T15:24:48.022Z,0.50
2022-10-09T15:27:14.992Z,0.50
2022-10-09T15:29:41.942Z,0.50
2022-10-09T15:32:11.039Z,0.50
2022-10-09T15:34:41.118Z,0.50
2022-10-09T15:37:11.950Z,0.50
2022-10-09T15:39:39.529Z,0.50
2022-10-09T15:42:09.006Z,0.50
2022-10-09T15:44:41.926Z,0.50
2022-10-09T15:47:08.980Z,0.45
2022-10-09T15:49:40.907Z,0.50
2022-10-09T15:52:08.140Z,0.50
2022-10-09T15:54:35.542Z,0.50
2022-10-09T15:57:02.620Z,0.50
2022-10-09T15:59:31.768Z,0.50
2022-10-09T16:01:58.895Z,0.60
2022-10-09T16:04:28.607Z,0.50
2022-10-09T16:06:55.684Z,0.50
2022-10-09T16:09:24.860Z,0.50
2022-10-09T16:11:51.695Z,0.50
2022-10-09T16:14:20.063Z,0.50
2022-10-09T16:16:52.707Z,0.50
2022-10-09T16:19:39.168Z,0.50
2022-10-09T16:22:09.232Z,0.50
2022-10-09T16:24:41.327Z,0.50
2022-10-09T16:27:11.828Z,0.50
2022-10-09T16:29:40.090Z,0.50
2022-10-09T16:32:07.017Z,0.57
2022-10-09T16:34:35.740Z,0.50
2022-10-09T16:37:02.751Z,0.50
2022-10-09T16:39:32.907Z,0.50
2022-10-09T16:42:03.837Z,0.60
2022-10-09T16:44:31.597Z,0.50
2022-10-09T16:47:02.205Z,0.50
2022-10-09T16:49:29.283Z,0.60
2022-10-09T16:51:56.335Z,0.60
2022-10-09T16:54:26.159Z,0.50
2022-10-09T16:56:53.155Z,0.50
2022-10-09T17:02:09.223Z,0.55
2022-10-09T17:04:48.105Z,0.50
2022-10-09T17:07:20.554Z,0.50
2022-10-09T17:10:00.430Z,0.50
2022-10-09T17:12:28.878Z,0.50
2022-10-09T17:15:16.423Z,0.50
2022-10-09T17:17:43.741Z,0.50
2022-10-09T17:20:11.008Z,0.50
2022-10-09T17:22:40.574Z,0.50
2022-10-09T17:25:16.415Z,0.50
2022-10-09T17:27:54.506Z,0.50
2022-10-09T17:30:25.843Z,0.50
2022-10-09T17:32:57.065Z,0.57
2022-10-09T17:38:06.355Z,0.60
2022-10-09T17:40:37.944Z,0.50
2022-10-09T17:43:07.312Z,0.50
2022-10-09T17:45:44.256Z,0.50
2022-10-09T17:48:12.020Z,0.50
2022-10-09T17:50:40.458Z,0.60
2022-10-09T17:53:12.356Z,0.50
2022-10-09T17:55:39.526Z,0.40
2022-10-09T17:58:08.747Z,0.50
2022-10-09T18:00:39.367Z,0.50
2022-10-09T18:03:07.209Z,0.50
2022-10-09T18:05:47.182Z,0.50
2022-10-09T18:08:17.397Z,0.50
2022-10-09T18:10:44.708Z,0.50
2022-10-09T18:13:11.763Z,0.50
2022-10-09T18:15:41.279Z,0.60
2022-10-09T18:18:09.986Z,0.50
2022-10-09T18:20:39.300Z,0.50
2022-10-09T18:25:57.434Z,0.50
2022-10-09T18:30:56.314Z,0.52
2022-10-09T18:33:23.820Z,0.60
2022-10-09T18:35:50.936Z,0.60
2022-10-09T18:38:17.844Z,0.50
2022-10-09T18:40:49.172Z,0.50
2022-10-09T18:43:24.775Z,0.50
2022-10-09T18:45:51.947Z,0.50
2022-10-09T18:48:23.315Z,0.57
2022-10-09T18:51:19.205Z,0.50
2022-10-09T18:53:51.963Z,0.50
2022-10-09T18:56:24.289Z,0.50
2022-10-09T18:58:52.406Z,0.50
2022-10-09T19:01:19.880Z,0.50
2022-10-09T19:03:49.944Z,0.50
2022-10-09T19:06:18.608Z,0.60
2022-10-09T19:08:46.360Z,0.50
2022-10-09T19:11:14.761Z,0.50
2022-10-09T19:16:37.753Z,0.50
2022-10-09T19:19:06.300Z,0.50
2022-10-09T19:21:33.635Z,0.50
2022-10-09T19:24:06.372Z,0.50
2022-10-09T19:26:39.821Z,0.60
2022-10-09T19:29:10.930Z,0.50
2022-10-09T19:31:42.390Z,0.50
2022-10-09T19:34:14.461Z,0.50
2022-10-09T19:36:43.264Z,0.50
2022-10-09T19:39:11.254Z,0.57
2022-10-09T19:41:39.051Z,0.50
2022-10-09T19:44:06.021Z,0.55
2022-10-09T19:46:32.891Z,0.50
2022-10-09T19:49:02.714Z,0.60
2022-10-09T19:51:29.972Z,0.50
2022-10-09T19:53:58.917Z,0.60
2022-10-09T19:56:51.738Z,0.50
2022-10-09T19:59:18.818Z,0.50
2022-10-09T20:01:56.660Z,0.50
2022-10-09T20:04:29.687Z,0.60
2022-10-09T20:07:01.942Z,0.50
2022-10-09T20:09:29.047Z,0.50
2022-10-09T20:11:56.056Z,0.60
2022-10-09T20:14:22.952Z,0.50
2022-10-09T20:16:49.968Z,0.50
2022-10-09T20:19:16.936Z,0.60
2022-10-09T20:21:43.891Z,0.60
2022-10-09T20:24:10.784Z,0.50
2022-10-09T20:26:42.211Z,0.50
2022-10-09T20:29:10.035Z,0.60
2022-10-09T20:31:37.056Z,0.60
2022-10-09T20:34:04.082Z,0.50
2022-10-09T20:36:35.493Z,0.60
2022-10-09T20:39:13.202Z,0.50
2022-10-09T20:41:41.684Z,0.50
2022-10-09T20:44:09.027Z,0.50
2022-10-09T20:46:38.095Z,0.60
2022-10-09T20:49:07.189Z,0.60
2022-10-09T20:51:38.404Z,0.50
2022-10-09T20:54:06.910Z,0.60
2022-10-09T20:56:34.407Z,0.52
2022-10-09T20:59:01.570Z,0.55
2022-10-09T21:01:29.093Z,0.60
2022-10-09T21:03:57.216Z,0.60
2022-10-09T21:06:24.188Z,0.50
2022-10-09T21:08:51.140Z,0.50
2022-10-09T21:11:19.093Z,0.50
2022-10-09T21:13:46.339Z,0.50
2022-10-09T21:16:15.667Z,0.50
2022-10-09T21:18:42.789Z,0.60
2022-10-09T21:21:12.641Z,0.50
2022-10-09T21:23:40.403Z,0.60
2022-10-09T21:26:12.417Z,0.50
2022-10-09T21:28:39.838Z,0.50
2022-10-09T21:31:11.941Z,0.50
2022-10-09T21:33:38.938Z,0.60
2022-10-09T21:36:30.573Z,0.50
2022-10-09T21:38:58.295Z,0.50
2022-10-09T21:41:25.354Z,0.50
2022-10-09T21:43:52.396Z,0.50
2022-10-09T21:46:24.643Z,0.50
2022-10-09T21:48:51.631Z,0.57
2022-10-09T21:51:18.740Z,0.50
2022-10-09T21:53:45.813Z,0.60
2022-10-09T21:56:12.828Z,0.50
2022-10-09T21:58:41.430Z,0.50
2022-10-09T22:01:17.212Z,0.60
2022-10-09T22:03:47.488Z,0.50
2022-10-09T22:06:19.224Z,0.55
2022-10-09T22:08:48.074Z,0.50
2022-10-09T22:11:15.707Z,0.50
2022-10-09T22:13:42.725Z,0.50
2022-10-09T22:16:12.354Z,0.60
2022-10-09T22:18:39.279Z,0.50
2022-10-09T22:21:08.724Z,0.60
2022-10-09T22:23:36.378Z,0.50
2022-10-09T22:26:06.413Z,0.60
2022-10-09T22:28:34.151Z,0.50
2022-10-09T22:31:08.482Z,0.50
2022-10-09T22:33:36.548Z,0.60
2022-10-09T22:36:10.424Z,0.60
2022-10-09T22:38:40.593Z,0.60
2022-10-09T22:41:11.772Z,0.60
2022-10-09T22:43:39.952Z,0.50
2022-10-09T22:46:11.660Z,0.50
2022-10-09T22:48:39.258Z,0.60
2022-10-09T22:51:08.094Z,0.50
2022-10-09T22:53:35.715Z,0.50
2022-10-09T22:56:07.620Z,0.50
2022-10-09T22:58:34.795Z,0.50
2022-10-09T23:01:08.688Z,0.60
2022-10-09T23:03:36.526Z,0.50
2022-10-09T23:06:07.966Z,0.60
2022-10-09T23:08:34.991Z,0.50
2022-10-09T23:11:01.850Z,0.50
2022-10-09T23:13:28.901Z,0.60
2022-10-09T23:15:55.851Z,0.50
2022-10-09T23:18:22.714Z,0.60
2022-10-09T23:20:49.633Z,0.60
2022-10-09T23:23:16.743Z,0.60
2022-10-09T23:25:43.848Z,0.50
2022-10-09T23:28:13.824Z,0.60
2022-10-09T23:30:42.846Z,0.52
2022-10-09T23:33:09.735Z,0.52
2022-10-09T23:35:41.056Z,0.60
2022-10-09T23:38:08.290Z,0.60
2022-10-09T23:40:35.281Z,0.60
2022-10-09T23:43:02.265Z,0.50
2022-10-09T23:45:29.252Z,0.60
2022-10-09T23:47:56.207Z,0.60
2022-10-09T23:50:23.135Z,0.60
2022-10-09T23:52:50.426Z,0.60
2022-10-09T23:55:17.523Z,0.50
2022-10-09T23:57:44.349Z,0.60
